createdAt,value
2023-11-15T00:04:23.424Z,79.91
2023-11-15T00:09:27.350Z,80.01
2023-11-15T00:14:29.350Z,80.40
2023-11-15T00:19:32.410Z,81.10
2023-11-15T00:24:34.770Z,81.78
2023-11-15T00:29:36.910Z,80.93
2023-11-15T00:34:41.295Z,81.70
2023-11-15T00:39:43.457Z,82.10
2023-11-15T00:44:45.526Z,82.55
2023-11-15T00:49:47.561Z,83.15
2023-11-15T00:54:50.594Z,84.88
2023-11-15T00:59:55.032Z,85.43
2023-11-15T01:04:58.893Z,86.28
2023-11-15T01:10:01.078Z,86.43
2023-11-15T01:15:07.703Z,86.87
2023-11-15T01:20:10.109Z,86.84
2023-11-15T01:25:14.094Z,87.67
2023-11-15T01:30:15.994Z,88.07
2023-11-15T01:35:19.686Z,87.25
2023-11-15T01:40:22.605Z,88.09
2023-11-15T01:45:24.642Z,87.40
2023-11-15T01:50:26.910Z,86.88
2023-11-15T01:55:30.083Z,87.16
2023-11-15T02:00:35.481Z,87.32
2023-11-15T02:05:37.595Z,86.53
2023-11-15T02:10:39.925Z,86.38
2023-11-15T02:15:41.890Z,87.37
2023-11-15T02:20:44.966Z,88.39
2023-11-15T02:25:47.346Z,88.82
2023-11-15T02:30:50.040Z,88.53
2023-11-15T02:35:52.050Z,89.11
2023-11-15T02:40:54.458Z,88.70
2023-11-15T02:45:57.400Z,89.55
2023-11-15T02:50:59.414Z,88.88
2023-11-15T02:56:01.601Z,89.36
2023-11-15T03:01:09.753Z,89.58
2023-11-15T03:06:15.543Z,88.67
2023-11-15T03:11:17.447Z,89.41
2023-11-15T03:16:20.923Z,89.95
2023-11-15T03:21:24.884Z,90.08
2023-11-15T03:26:26.859Z,88.67
2023-11-15T03:31:28.942Z,88.71
2023-11-15T03:36:34.078Z,88.88
2023-11-15T03:41:36.452Z,89.09
2023-11-15T03:46:38.548Z,88.92
2023-11-15T03:51:40.662Z,89.50
2023-11-15T03:56:44.161Z,88.70
2023-11-15T04:01:55.140Z,89.14
2023-11-15T04:06:59.660Z,89.63
2023-11-15T04:12:02.835Z,89.11
2023-11-15T04:17:05.693Z,89.60
2023-11-15T04:22:13.564Z,90.80
2023-11-15T04:27:16.559Z,90.74
2023-11-15T04:32:18.621Z,91.30
2023-11-15T04:37:20.960Z,91.80
2023-11-15T04:42:28.168Z,90.80
2023-11-15T04:47:31.848Z,90.83
2023-11-15T04:52:34.989Z,91.77
2023-11-15T04:57:37.324Z,91.40
2023-11-15T05:02:39.466Z,92.41
2023-11-15T05:07:41.629Z,92.67
2023-11-15T05:12:43.649Z,92.37
2023-11-15T05:17:45.639Z,92.32
2023-11-15T05:22:48.624Z,92.98
2023-11-15T05:27:54.892Z,91.90
2023-11-15T05:32:56.909Z,92.85
2023-11-15T05:37:59.662Z,92.85
2023-11-15T05:43:01.660Z,92.49
2023-11-15T05:48:03.976Z,93.17
2023-11-15T05:53:07.168Z,93.53
2023-11-15T05:58:13.162Z,92.93
2023-11-15T06:03:15.348Z,92.63
2023-11-15T06:08:19.020Z,92.67
2023-11-15T06:13:22.246Z,92.82
2023-11-15T06:18:24.467Z,94.27
2023-11-15T06:23:26.578Z,95.34
2023-11-15T06:28:28.833Z,95.34
2023-11-15T06:33:32.612Z,95.75
2023-11-15T06:38:36.240Z,94.75
2023-11-15T06:43:43.289Z,94.90
2023-11-15T06:48:45.857Z,96.33
2023-11-15T06:53:52.797Z,96.02
2023-11-15T06:58:58.636Z,95.89
2023-11-15T07:04:09.128Z,96.18
2023-11-15T07:09:14.231Z,96.16
2023-11-15T07:14:18.325Z,96.06
2023-11-15T07:19:20.329Z,95.83
2023-11-15T07:24:22.782Z,96.69
2023-11-15T07:29:27.732Z,96.28
2023-11-15T07:34:30.734Z,96.34
2023-11-15T07:39:34.988Z,95.55
2023-11-15T07:44:44.890Z,97.06
2023-11-15T07:49:47.486Z,97.55
2023-11-15T07:54:49.709Z,99.54
2023-11-15T07:59:53.331Z,99.97
2023-11-15T08:04:55.900Z,100.00
2023-11-15T08:09:57.985Z,100.00
2023-11-15T08:15:01.424Z,100.00
2023-11-15T08:20:05.869Z,100.00
2023-11-15T08:25:11.038Z,100.00
2023-11-15T08:30:19.153Z,100.00
2023-11-15T08:35:22.143Z,100.00
2023-11-15T08:40:29.042Z,99.83
2023-11-15T08:45:32.892Z,100.00
2023-11-15T08:50:35.903Z,98.08
2023-11-15T08:55:42.227Z,98.89
2023-11-15T09:00:51.350Z,99.02
2023-11-15T09:05:53.608Z,99.77
2023-11-15T09:10:56.868Z,100.00
2023-11-15T09:16:00.562Z,99.71
2023-11-15T09:26:07.804Z,100.00
2023-11-15T09:31:13.765Z,99.09
2023-11-15T09:36:16.235Z,97.62
2023-11-15T09:41:21.060Z,97.07
2023-11-15T09:46:23.761Z,97.06
2023-11-15T09:51:31.395Z,96.06
2023-11-15T09:56:36.946Z,95.65
2023-11-15T10:01:47.041Z,95.56
2023-11-15T10:06:52.643Z,93.96
2023-11-15T10:11:55.249Z,93.50
2023-11-15T10:17:02.221Z,92.04
2023-11-15T10:22:06.523Z,90.12
2023-11-15T10:27:16.449Z,87.25
2023-11-15T10:32:23.631Z,85.58
2023-11-15T10:37:25.694Z,85.72
2023-11-15T10:42:30.005Z,85.56
2023-11-15T10:47:35.961Z,86.64
2023-11-15T10:52:40.491Z,86.43
2023-11-15T10:57:47.639Z,86.59
2023-11-15T11:02:52.766Z,86.93
2023-11-15T11:08:36.357Z,85.01
2023-11-15T11:13:42.455Z,85.36
2023-11-15T11:19:18.437Z,84.05
2023-11-15T11:24:24.082Z,84.57
2023-11-15T11:29:32.310Z,84.58
2023-11-15T11:34:34.517Z,85.76
2023-11-15T11:39:48.306Z,85.52
2023-11-15T11:44:58.683Z,85.43
2023-11-15T11:50:06.168Z,84.19
2023-11-15T11:55:09.658Z,84.48
2023-11-15T12:00:19.610Z,83.99
2023-11-15T12:05:26.010Z,83.46
2023-11-15T12:10:28.085Z,82.88
2023-11-15T12:15:30.520Z,82.88
2023-11-15T12:20:42.908Z,84.32
2023-11-15T12:25:56.025Z,86.32
2023-11-15T12:31:04.048Z,87.26
2023-11-15T12:36:12.902Z,89.91
2023-11-15T12:41:16.022Z,90.09
2023-11-15T12:46:21.725Z,91.02
2023-11-15T12:51:27.853Z,91.32
2023-11-15T12:56:30.004Z,93.69
2023-11-15T13:01:32.125Z,95.14
2023-11-15T13:06:37.480Z,97.18
2023-11-15T13:11:41.569Z,99.03
2023-11-15T13:16:43.916Z,100.00
2023-11-15T13:21:48.747Z,99.72
2023-11-15T13:26:53.465Z,98.50
2023-11-15T13:32:00.826Z,99.43
2023-11-15T13:37:03.000Z,99.00
2023-11-15T13:42:09.732Z,100.00
2023-11-15T13:47:14.156Z,100.00
2023-11-15T13:52:17.513Z,100.00
2023-11-15T13:57:20.448Z,100.00
2023-11-15T14:02:25.063Z,96.97
2023-11-15T14:07:29.066Z,96.40
2023-11-15T14:12:41.130Z,96.41
2023-11-15T14:17:44.005Z,95.82
2023-11-15T14:22:49.136Z,95.52
2023-11-15T14:27:56.289Z,94.38
2023-11-15T14:33:09.881Z,94.74
2023-11-15T14:38:15.981Z,93.00
2023-11-15T14:43:20.953Z,93.75
2023-11-15T14:48:23.414Z,95.25
2023-11-15T14:53:26.757Z,94.68
2023-11-15T14:58:28.994Z,95.00
2023-11-15T15:03:35.475Z,93.68
2023-11-15T15:08:42.197Z,93.62
2023-11-15T15:13:44.901Z,93.78
2023-11-15T15:18:47.539Z,94.38
2023-11-15T15:23:50.859Z,93.70
2023-11-15T15:28:55.251Z,93.50
2023-11-15T15:34:00.645Z,94.96
2023-11-15T15:39:04.222Z,95.42
2023-11-15T15:44:13.172Z,92.95
2023-11-15T15:49:15.789Z,92.52
2023-11-15T15:54:22.997Z,92.46
2023-11-15T15:59:25.614Z,90.73
2023-11-15T16:04:28.284Z,91.21
2023-11-15T16:09:33.451Z,91.56
2023-11-15T16:14:36.919Z,93.17
2023-11-15T16:19:47.074Z,94.16
2023-11-15T16:24:58.852Z,94.25
2023-11-15T16:30:02.450Z,94.12
2023-11-15T16:35:09.623Z,92.52
2023-11-15T16:40:20.619Z,92.27
2023-11-15T16:45:27.964Z,91.61
2023-11-15T16:50:30.301Z,91.63
2023-11-15T16:55:33.520Z,90.83
2023-11-15T17:00:36.645Z,90.77
2023-11-15T17:05:41.012Z,90.65
2023-11-15T17:10:49.070Z,90.45
2023-11-15T17:15:52.812Z,87.93
2023-11-15T17:20:59.751Z,86.84
2023-11-15T17:26:05.189Z,86.84
2023-11-15T17:31:14.606Z,86.20
2023-11-15T17:36:16.794Z,85.51
2023-11-15T17:41:21.245Z,84.68
2023-11-15T17:46:26.011Z,85.24
2023-11-15T17:51:35.281Z,84.42
2023-11-15T17:56:39.879Z,84.54
2023-11-15T18:01:44.465Z,84.95
2023-11-15T18:06:47.944Z,85.58
2023-11-15T18:11:59.201Z,86.00
2023-11-15T18:17:04.937Z,85.57
2023-11-15T18:22:08.443Z,86.22
2023-11-15T18:27:12.028Z,86.44
2023-11-15T18:32:15.121Z,86.89
2023-11-15T18:37:19.934Z,86.82
2023-11-15T18:42:22.894Z,87.33
2023-11-15T18:47:33.003Z,88.30
2023-11-15T18:52:40.581Z,89.12
2023-11-15T18:57:46.188Z,89.37
2023-11-15T19:02:50.305Z,89.20
2023-11-15T19:07:53.733Z,89.84
2023-11-15T19:12:57.478Z,89.63
2023-11-15T19:18:02.110Z,89.85
2023-11-15T19:23:08.827Z,89.44
2023-11-15T19:28:12.402Z,89.95
2023-11-15T19:33:15.873Z,89.97
2023-11-15T19:38:19.544Z,90.73
2023-11-15T19:43:23.733Z,90.95
2023-11-15T19:44:16.615Z,91.34
2023-11-15T19:44:31.092Z,91.22
2023-11-15T19:44:40.886Z,91.06
2023-11-15T19:44:49.549Z,90.58
2023-11-15T19:44:58.331Z,91.62
2023-11-15T19:45:09.032Z,91.75
2023-11-15T19:45:17.515Z,91.48
2023-11-15T19:45:40.837Z,91.62
2023-11-15T19:45:54.821Z,91.75
2023-11-15T19:46:02.855Z,91.61
2023-11-15T19:46:18.719Z,91.52
2023-11-15T19:46:27.331Z,91.51
2023-11-15T19:46:35.916Z,91.22
2023-11-15T19:46:44.498Z,91.21
2023-11-15T19:47:03.178Z,91.57
2023-11-15T19:47:11.610Z,91.29
2023-11-15T19:47:22.638Z,91.41
2023-11-15T19:47:31.156Z,90.98
2023-11-15T19:47:42.470Z,91.56
2023-11-15T19:47:50.609Z,91.41
2023-11-15T19:48:09.015Z,91.64
2023-11-15T19:48:19.596Z,91.19
2023-11-15T19:48:28.062Z,91.71
2023-11-15T19:48:37.931Z,91.36
2023-11-15T19:48:49.891Z,91.36
2023-11-15T19:48:58.339Z,91.51
2023-11-15T19:49:17.210Z,90.96
2023-11-15T19:49:25.669Z,91.52
2023-11-15T19:49:34.413Z,91.44
2023-11-15T19:49:42.620Z,91.35
2023-11-15T19:49:50.839Z,91.47
2023-11-15T19:50:00.344Z,91.20
2023-11-15T19:50:18.437Z,91.59
2023-11-15T19:50:26.849Z,91.28
2023-11-15T19:50:35.267Z,91.73
2023-11-15T19:50:45.505Z,91.17
2023-11-15T19:50:56.584Z,91.33
2023-11-15T19:51:06.545Z,91.60
2023-11-15T19:51:37.532Z,91.76
2023-11-15T19:51:55.778Z,92.23
2023-11-15T19:52:13.881Z,91.84
2023-11-15T19:52:24.153Z,91.50
2023-11-15T19:52:32.498Z,92.02
2023-11-15T19:52:45.129Z,92.06
2023-11-15T19:52:55.558Z,91.94
2023-11-15T19:53:09.018Z,91.72
2023-11-15T19:53:18.841Z,91.67
2023-11-15T19:53:27.587Z,91.84
2023-11-15T19:53:36.148Z,91.88
2023-11-15T19:53:45.552Z,91.79
2023-11-15T19:53:57.778Z,91.39
2023-11-15T19:54:09.688Z,91.94
2023-11-15T19:54:22.957Z,91.65
2023-11-15T19:54:31.238Z,91.43
2023-11-15T19:54:42.374Z,92.16
2023-11-15T19:54:50.857Z,92.22
2023-11-15T19:54:59.163Z,91.40
2023-11-15T19:55:19.988Z,91.39
2023-11-15T19:55:32.059Z,92.04
2023-11-15T19:55:40.803Z,91.99
2023-11-15T19:55:48.712Z,91.67
2023-11-15T19:55:57.222Z,92.04
2023-11-15T19:56:07.577Z,92.17
2023-11-15T19:56:26.249Z,92.01
2023-11-15T19:56:35.651Z,91.77
2023-11-15T19:56:43.836Z,91.91
2023-11-15T19:56:54.514Z,91.61
2023-11-15T19:57:03.044Z,92.09
2023-11-15T19:57:11.205Z,91.50
2023-11-15T19:57:29.883Z,91.46
2023-11-15T19:57:41.967Z,91.38
2023-11-15T19:57:50.038Z,91.84
2023-11-15T19:57:59.613Z,91.69
2023-11-15T19:58:08.603Z,91.86
2023-11-15T19:58:17.470Z,91.76
2023-11-15T19:58:39.369Z,92.36
2023-11-15T19:58:49.737Z,91.62
2023-11-15T19:58:58.241Z,91.84
2023-11-15T19:59:06.249Z,91.79
2023-11-15T19:59:16.515Z,92.38
2023-11-15T19:59:25.122Z,92.38
2023-11-15T19:59:50.060Z,92.16
2023-11-15T19:59:59.116Z,91.99
2023-11-15T20:00:14.384Z,92.35
2023-11-15T20:00:22.531Z,92.47
2023-11-15T20:00:30.657Z,92.28
2023-11-15T20:00:39.800Z,91.91
2023-11-15T20:01:11.081Z,91.89
2023-11-15T20:01:22.863Z,92.63
2023-11-15T20:06:34.837Z,92.43
2023-11-15T20:11:41.450Z,93.11
2023-11-15T20:16:44.887Z,93.81
2023-11-15T20:21:50.594Z,94.06
2023-11-15T20:26:57.809Z,94.71
2023-11-15T20:32:01.041Z,94.63
2023-11-15T20:37:04.337Z,94.92
2023-11-15T20:42:10.985Z,95.32
2023-11-15T20:47:15.384Z,95.00
2023-11-15T20:52:20.302Z,95.44
2023-11-15T20:57:24.267Z,96.13
2023-11-15T21:02:26.420Z,96.49
2023-11-15T21:07:43.826Z,96.11
2023-11-15T21:12:50.025Z,96.88
2023-11-15T21:18:12.556Z,96.43
2023-11-15T21:23:14.434Z,96.03
2023-11-15T21:28:18.688Z,95.80
2023-11-15T21:33:22.998Z,95.14
2023-11-15T21:38:32.366Z,95.85
2023-11-15T21:43:35.561Z,95.59
2023-11-15T21:48:38.690Z,96.08
2023-11-15T21:53:57.371Z,95.92
2023-11-15T21:59:01.577Z,95.60
2023-11-15T22:04:09.814Z,96.14
2023-11-15T22:09:18.143Z,96.64
2023-11-15T22:14:22.672Z,97.27
2023-11-15T22:19:24.837Z,97.43
2023-11-15T22:24:33.090Z,97.48
2023-11-15T22:29:53.376Z,98.13
2023-11-15T22:34:58.252Z,98.17
2023-11-15T22:40:01.311Z,97.83
2023-11-15T22:45:07.339Z,97.27
2023-11-15T22:50:18.896Z,96.85
2023-11-15T22:55:21.518Z,96.62
2023-11-15T23:00:37.914Z,97.01
2023-11-15T23:05:44.368Z,97.17
2023-11-15T23:10:47.395Z,97.62
2023-11-15T23:15:52.367Z,97.28
2023-11-15T23:21:02.776Z,98.15
2023-11-15T23:26:05.975Z,97.95
2023-11-15T23:31:08.028Z,98.26
2023-11-15T23:36:10.244Z,97.48
2023-11-15T23:41:22.097Z,98.24
2023-11-15T23:46:25.220Z,97.60
2023-11-15T23:51:27.249Z,97.72
2023-11-15T23:56:29.158Z,96.95
